createdAt,value
2019-02-07T00:00:21.355Z,15.43
2019-02-07T00:01:00.603Z,15.03
2019-02-07T00:01:37.321Z,14.67
2019-02-07T00:02:12.938Z,15.87
2019-02-07T00:02:48.483Z,13.60
2019-02-07T00:03:24.015Z,14.30
2019-02-07T00:03:59.726Z,15.53
2019-02-07T00:04:35.655Z,14.10
2019-02-07T00:05:11.208Z,14.40
2019-02-07T00:05:47.075Z,14.97
2019-02-07T00:06:22.833Z,14.93
2019-02-07T00:06:58.396Z,14.80
2019-02-07T00:07:34.419Z,14.73
2019-02-07T00:08:10.335Z,14.80
2019-02-07T00:08:46.302Z,14.37
2019-02-07T00:09:22.248Z,14.33
2019-02-07T00:09:57.906Z,14.90
2019-02-07T00:10:34.222Z,15.47
2019-02-07T00:11:09.872Z,15.30
2019-02-07T00:11:45.735Z,15.50
2019-02-07T00:12:21.348Z,15.10
2019-02-07T00:12:57.171Z,14.63
2019-02-07T00:13:32.743Z,15.97
2019-02-07T00:14:08.312Z,15.40
2019-02-07T00:14:43.841Z,14.43
2019-02-07T00:15:19.435Z,14.50
2019-02-07T00:15:54.999Z,15.70
2019-02-07T00:16:30.567Z,16.00
2019-02-07T00:17:06.391Z,15.63
2019-02-07T00:17:41.970Z,16.13
2019-02-07T00:18:17.535Z,14.50
2019-02-07T00:18:53.131Z,14.50
2019-02-07T00:19:28.683Z,16.40
2019-02-07T00:20:05.369Z,15.83
2019-02-07T00:20:41.259Z,16.17
2019-02-07T00:21:16.814Z,14.33
2019-02-07T00:21:52.351Z,15.67
2019-02-07T00:22:28.381Z,15.33
2019-02-07T00:23:03.991Z,15.27
2019-02-07T00:23:39.934Z,15.53
2019-02-07T00:24:15.491Z,15.03
2019-02-07T00:24:51.751Z,16.93
2019-02-07T00:25:27.375Z,16.33
2019-02-07T00:26:03.385Z,15.53
2019-02-07T00:26:39.567Z,15.90
2019-02-07T00:27:15.242Z,14.93
2019-02-07T00:27:50.782Z,16.23
2019-02-07T00:28:26.672Z,16.40
2019-02-07T00:29:02.235Z,15.80
2019-02-07T00:29:37.811Z,15.57
2019-02-07T00:30:14.499Z,16.07
2019-02-07T00:30:50.530Z,16.83
2019-02-07T00:31:26.151Z,17.10
2019-02-07T00:32:01.683Z,16.43
2019-02-07T00:32:38.227Z,16.00
2019-02-07T00:33:13.767Z,15.57
2019-02-07T00:33:49.323Z,16.00
2019-02-07T00:34:24.902Z,16.57
2019-02-07T00:35:00.467Z,15.80
2019-02-07T00:35:36.263Z,16.70
2019-02-07T00:36:11.886Z,17.27
2019-02-07T00:36:47.433Z,18.03
2019-02-07T00:37:23.455Z,16.80
2019-02-07T00:37:59.018Z,17.80
2019-02-07T00:38:35.079Z,17.90
2019-02-07T00:39:10.631Z,19.30
2019-02-07T00:39:46.459Z,18.57
2019-02-07T00:40:22.035Z,18.70
2019-02-07T00:40:57.588Z,19.23
2019-02-07T00:41:33.491Z,20.70
2019-02-07T00:42:09.080Z,19.87
2019-02-07T00:42:45.208Z,21.60
2019-02-07T00:43:20.752Z,19.53
2019-02-07T00:43:56.641Z,20.47
2019-02-07T00:44:32.524Z,22.47
2019-02-07T00:45:10.043Z,23.27
2019-02-07T00:45:45.835Z,23.33
2019-02-07T00:46:21.741Z,21.80
2019-02-07T00:46:57.357Z,21.43
2019-02-07T00:47:32.931Z,20.30
2019-02-07T00:48:09.795Z,21.20
2019-02-07T00:48:45.340Z,22.87
2019-02-07T00:49:20.880Z,22.23
2019-02-07T00:49:56.431Z,24.90
2019-02-07T00:50:32.319Z,22.90
2019-02-07T00:51:07.893Z,21.83
2019-02-07T00:51:43.500Z,23.70
2019-02-07T00:52:19.850Z,25.60
2019-02-07T00:52:55.384Z,20.43
2019-02-07T00:53:31.302Z,20.77
2019-02-07T00:54:06.852Z,22.70
2019-02-07T00:54:43.739Z,24.67
2019-02-07T00:55:19.278Z,24.17
2019-02-07T00:55:54.866Z,20.70
2019-02-07T00:56:30.412Z,20.63
2019-02-07T00:57:05.964Z,20.40
2019-02-07T00:57:42.015Z,24.10
2019-02-07T00:58:17.651Z,22.37
2019-02-07T00:58:53.503Z,22.60
2019-02-07T00:59:29.660Z,21.90
2019-02-07T01:00:07.223Z,20.80
2019-02-07T01:00:42.783Z,22.83
2019-02-07T01:01:18.330Z,20.47
2019-02-07T01:01:53.963Z,21.77
2019-02-07T01:02:29.591Z,23.90
2019-02-07T01:03:05.131Z,20.33
2019-02-07T01:03:41.230Z,23.33
2019-02-07T01:04:16.772Z,26.27
2019-02-07T01:04:52.339Z,28.43
2019-02-07T01:05:27.927Z,21.87
2019-02-07T01:06:03.470Z,20.90
2019-02-07T01:06:39.027Z,23.70
2019-02-07T01:07:15.159Z,22.57
2019-02-07T01:07:50.751Z,21.57
2019-02-07T01:08:27.168Z,22.57
2019-02-07T01:09:03.568Z,23.43
2019-02-07T01:09:40.094Z,25.93
2019-02-07T01:10:18.374Z,27.67
2019-02-07T01:10:53.911Z,23.73
2019-02-07T01:11:29.464Z,27.83
2019-02-07T01:12:05.406Z,22.13
2019-02-07T01:12:41.639Z,24.00
2019-02-07T01:13:17.246Z,25.43
2019-02-07T01:13:53.038Z,22.87
2019-02-07T01:14:28.591Z,24.30
2019-02-07T01:15:04.608Z,28.70
2019-02-07T01:15:40.246Z,26.70
2019-02-07T01:16:15.776Z,25.10
2019-02-07T01:16:51.891Z,33.27
2019-02-07T01:17:27.938Z,27.20
2019-02-07T01:18:03.475Z,25.27
2019-02-07T01:18:39.038Z,27.27
2019-02-07T01:19:15.871Z,25.20
2019-02-07T01:19:51.801Z,28.60
2019-02-07T01:20:27.615Z,27.60
2019-02-07T01:21:04.032Z,25.97
2019-02-07T01:21:39.590Z,31.77
2019-02-07T01:22:15.683Z,25.73
2019-02-07T01:22:51.240Z,29.40
2019-02-07T01:23:26.818Z,29.27
2019-02-07T01:24:02.768Z,29.53
2019-02-07T01:24:38.629Z,27.63
2019-02-07T01:25:16.392Z,29.03
2019-02-07T01:25:51.927Z,29.10
2019-02-07T01:26:27.467Z,31.80
2019-02-07T01:27:03.272Z,30.30
2019-02-07T01:27:39.187Z,29.50
2019-02-07T01:28:14.842Z,33.33
2019-02-07T01:28:51.179Z,30.73
2019-02-07T01:29:26.737Z,26.77
2019-02-07T01:30:02.275Z,29.20
2019-02-07T01:30:38.099Z,25.47
2019-02-07T01:31:13.881Z,29.10
2019-02-07T01:31:49.415Z,29.63
2019-02-07T01:32:24.987Z,28.53
2019-02-07T01:33:00.613Z,29.43
2019-02-07T01:33:36.178Z,34.03
2019-02-07T01:34:12.051Z,30.97
2019-02-07T01:34:49.070Z,28.27
2019-02-07T01:35:24.647Z,29.63
2019-02-07T01:36:01.545Z,25.93
2019-02-07T01:36:37.343Z,27.10
2019-02-07T01:37:12.911Z,26.97
2019-02-07T01:37:48.559Z,28.93
2019-02-07T01:38:24.261Z,30.63
2019-02-07T01:38:59.794Z,29.50
2019-02-07T01:39:35.648Z,27.60
2019-02-07T01:40:13.363Z,26.33
2019-02-07T01:40:49.163Z,26.13
2019-02-07T01:41:24.723Z,28.27
2019-02-07T01:42:00.378Z,37.47
2019-02-07T01:42:35.992Z,24.77
2019-02-07T01:43:11.538Z,27.33
2019-02-07T01:43:47.086Z,35.97
2019-02-07T01:44:22.629Z,25.67
2019-02-07T01:44:58.176Z,34.03
2019-02-07T01:45:33.734Z,29.87
2019-02-07T01:46:09.277Z,27.10
2019-02-07T01:46:45.118Z,33.10
2019-02-07T01:47:20.967Z,25.73
2019-02-07T01:47:56.539Z,26.20
2019-02-07T01:48:32.073Z,29.90
2019-02-07T01:49:08.272Z,26.63
2019-02-07T01:49:44.081Z,30.73
2019-02-07T01:50:21.336Z,29.40
2019-02-07T01:50:57.347Z,31.50
2019-02-07T01:51:32.896Z,35.57
2019-02-07T01:52:08.531Z,24.67
2019-02-07T01:52:44.091Z,27.03
2019-02-07T01:53:19.693Z,38.87
2019-02-07T01:53:55.315Z,38.13
2019-02-07T01:54:30.867Z,32.23
2019-02-07T01:55:06.507Z,24.57
2019-02-07T01:55:42.065Z,26.67
2019-02-07T01:56:17.595Z,27.73
2019-02-07T01:56:53.244Z,26.73
2019-02-07T01:57:28.818Z,25.63
2019-02-07T01:58:04.451Z,26.67
2019-02-07T01:58:39.994Z,32.03
2019-02-07T01:59:15.562Z,32.83
2019-02-07T01:59:51.245Z,33.80
2019-02-07T02:00:26.827Z,25.17
2019-02-07T02:01:02.647Z,26.93
2019-02-07T02:01:38.179Z,27.67
2019-02-07T02:02:14.021Z,25.27
2019-02-07T02:02:49.679Z,33.17
2019-02-07T02:03:25.310Z,29.97
2019-02-07T02:04:00.858Z,27.23
2019-02-07T02:04:36.467Z,25.43
2019-02-07T02:05:13.449Z,25.60
2019-02-07T02:05:48.984Z,26.67
2019-02-07T02:06:24.601Z,27.00
2019-02-07T02:07:00.685Z,23.30
2019-02-07T02:07:36.491Z,28.83
2019-02-07T02:08:12.551Z,26.03
2019-02-07T02:08:48.365Z,27.97
2019-02-07T02:09:23.907Z,27.33
2019-02-07T02:09:59.451Z,27.27
2019-02-07T02:10:35.022Z,30.57
2019-02-07T02:11:10.579Z,26.53
2019-02-07T02:11:46.185Z,25.63
2019-02-07T02:12:21.791Z,29.40
2019-02-07T02:12:57.607Z,23.73
2019-02-07T02:13:33.243Z,23.20
2019-02-07T02:14:08.846Z,23.43
2019-02-07T02:14:44.915Z,23.27
2019-02-07T02:15:24.917Z,26.23
2019-02-07T02:15:59.359Z,23.80
2019-02-07T02:16:34.909Z,26.50
2019-02-07T02:17:10.467Z,23.87
2019-02-07T02:17:46.155Z,27.60
2019-02-07T02:18:21.977Z,24.50
2019-02-07T02:18:57.628Z,23.53
2019-02-07T02:19:33.170Z,24.03
2019-02-07T02:20:09.515Z,26.60
2019-02-07T02:20:45.335Z,25.30
2019-02-07T02:21:20.882Z,33.23
2019-02-07T02:21:56.912Z,29.40
2019-02-07T02:22:32.479Z,26.73
2019-02-07T02:23:08.203Z,25.83
2019-02-07T02:23:43.949Z,26.53
2019-02-07T02:24:19.635Z,21.93
2019-02-07T02:24:55.451Z,25.97
2019-02-07T02:25:31.000Z,24.63
2019-02-07T02:26:06.535Z,24.77
2019-02-07T02:26:42.453Z,24.10
2019-02-07T02:27:17.999Z,30.83
2019-02-07T02:27:53.637Z,26.30
2019-02-07T02:28:29.187Z,28.90
2019-02-07T02:29:04.832Z,23.97
2019-02-07T02:29:40.354Z,26.27
2019-02-07T02:30:30.230Z,34.57
2019-02-07T02:31:06.160Z,28.20
2019-02-07T02:31:41.820Z,24.93
2019-02-07T02:32:17.738Z,27.27
2019-02-07T02:32:53.363Z,29.53
2019-02-07T02:33:29.319Z,24.07
2019-02-07T02:34:05.184Z,24.77
2019-02-07T02:34:41.076Z,26.87
2019-02-07T02:35:16.931Z,30.23
2019-02-07T02:35:52.904Z,25.47
2019-02-07T02:36:29.582Z,26.73
2019-02-07T02:37:05.184Z,24.73
2019-02-07T02:37:40.720Z,30.63
2019-02-07T02:38:17.272Z,25.90
2019-02-07T02:38:52.807Z,24.63
2019-02-07T02:39:28.647Z,34.03
2019-02-07T02:40:04.961Z,26.00
2019-02-07T02:40:40.566Z,29.57
2019-02-07T02:41:16.117Z,27.17
2019-02-07T02:41:51.698Z,30.13
2019-02-07T02:42:27.381Z,23.50
2019-02-07T02:43:02.972Z,31.23
2019-02-07T02:43:38.525Z,27.93
2019-02-07T02:44:14.089Z,26.13
2019-02-07T02:44:49.648Z,24.93
2019-02-07T02:45:36.659Z,24.30
2019-02-07T02:46:02.509Z,27.17
2019-02-07T02:46:38.387Z,28.07
2019-02-07T02:47:14.408Z,27.73
2019-02-07T02:47:49.971Z,26.67
2019-02-07T02:48:27.409Z,27.43
2019-02-07T02:49:03.024Z,25.80
2019-02-07T02:49:38.661Z,26.63
2019-02-07T02:50:15.945Z,27.63
2019-02-07T02:50:51.480Z,29.03
2019-02-07T02:51:27.027Z,28.17
2019-02-07T02:52:02.595Z,26.90
2019-02-07T02:52:40.270Z,24.70
2019-02-07T02:53:15.619Z,24.27
2019-02-07T02:53:52.447Z,33.83
2019-02-07T02:54:37.997Z,27.63
2019-02-07T02:55:18.190Z,31.63
2019-02-07T02:55:55.722Z,34.07
2019-02-07T02:56:31.331Z,32.83
2019-02-07T02:57:06.888Z,33.80
2019-02-07T02:57:42.433Z,27.27
2019-02-07T02:58:17.983Z,30.87
2019-02-07T02:58:53.586Z,29.87
2019-02-07T02:59:29.131Z,29.17
2019-02-07T03:00:10.424Z,34.93
2019-02-07T03:01:04.175Z,28.43
2019-02-07T03:02:01.895Z,27.37
2019-02-07T03:02:45.199Z,25.17
2019-02-07T03:03:40.195Z,25.40
2019-02-07T03:04:24.867Z,25.00
2019-02-07T03:05:22.538Z,30.63
2019-02-07T03:06:24.780Z,27.83
2019-02-07T03:07:24.484Z,25.40
2019-02-07T03:08:17.695Z,27.43
2019-02-07T03:09:12.323Z,27.40
2019-02-07T03:09:49.984Z,25.83
2019-02-07T03:10:47.745Z,28.33
2019-02-07T03:11:45.788Z,29.80
2019-02-07T03:12:38.853Z,26.67
2019-02-07T03:13:32.241Z,32.67
2019-02-07T03:14:27.070Z,27.33
2019-02-07T03:15:21.008Z,27.13
2019-02-07T03:16:19.937Z,31.57
2019-02-07T03:17:23.611Z,33.23
2019-02-07T03:18:15.432Z,25.90
2019-02-07T03:19:03.379Z,30.40
2019-02-07T03:20:03.876Z,26.53
2019-02-07T03:20:57.160Z,25.73
2019-02-07T03:21:51.809Z,28.87
2019-02-07T03:22:43.125Z,24.40
2019-02-07T03:23:40.618Z,25.07
2019-02-07T03:24:32.262Z,26.33
2019-02-07T03:25:25.950Z,31.23
2019-02-07T03:26:17.879Z,26.93
2019-02-07T03:27:11.136Z,32.87
2019-02-07T03:28:04.646Z,28.67
2019-02-07T03:29:17.940Z,24.37
2019-02-07T03:30:20.457Z,27.13
2019-02-07T03:31:25.984Z,26.67
2019-02-07T03:32:12.033Z,36.70
2019-02-07T03:33:10.830Z,26.97
2019-02-07T03:34:04.399Z,28.90
2019-02-07T03:34:59.101Z,30.40
2019-02-07T03:36:02.863Z,28.53
2019-02-07T03:36:56.494Z,29.17
2019-02-07T03:37:57.006Z,23.57
2019-02-07T03:38:50.735Z,23.53
2019-02-07T03:39:44.301Z,23.90
2019-02-07T03:40:34.977Z,23.03
2019-02-07T03:41:26.959Z,28.03
2019-02-07T03:42:14.395Z,25.53
2019-02-07T03:43:21.455Z,24.93
2019-02-07T03:44:14.480Z,23.17
2019-02-07T03:45:18.560Z,22.43
2019-02-07T03:46:05.446Z,25.37
2019-02-07T03:46:50.151Z,25.83
2019-02-07T03:47:38.763Z,22.50
2019-02-07T03:48:27.275Z,26.87
2019-02-07T03:49:18.312Z,29.10
2019-02-07T03:50:04.640Z,32.93
2019-02-07T03:51:05.455Z,25.07
2019-02-07T03:51:55.531Z,22.80
2019-02-07T03:52:56.153Z,23.50
2019-02-07T03:53:51.548Z,23.40
2019-02-07T03:54:41.600Z,24.07
2019-02-07T03:55:27.030Z,23.27
2019-02-07T03:56:13.758Z,21.23
2019-02-07T03:57:11.151Z,21.23
2019-02-07T03:58:04.621Z,23.03
2019-02-07T03:59:05.353Z,22.40
2019-02-07T04:00:18.340Z,29.70
2019-02-07T04:01:11.847Z,23.33
2019-02-07T04:01:59.160Z,25.93
2019-02-07T04:02:52.643Z,21.33
2019-02-07T04:03:46.432Z,21.07
2019-02-07T04:04:35.415Z,20.53
2019-02-07T04:05:22.931Z,24.27
2019-02-07T04:06:20.619Z,22.97
2019-02-07T04:07:30.739Z,21.87
2019-02-07T04:08:40.589Z,19.43
2019-02-07T04:09:53.991Z,23.07
2019-02-07T04:10:54.926Z,19.90
2019-02-07T04:11:55.668Z,20.43
2019-02-07T04:13:05.403Z,22.00
2019-02-07T04:14:01.500Z,24.80
2019-02-07T04:14:54.732Z,27.13
2019-02-07T04:16:01.740Z,22.87
2019-02-07T04:16:54.947Z,25.90
2019-02-07T04:18:01.928Z,23.30
2019-02-07T04:18:55.396Z,27.23
2019-02-07T04:19:43.638Z,23.67
2019-02-07T04:20:28.890Z,23.10
2019-02-07T04:21:42.028Z,20.43
2019-02-07T04:22:29.207Z,22.40
2019-02-07T04:23:12.719Z,23.10
2019-02-07T04:24:00.851Z,20.30
2019-02-07T04:24:52.588Z,19.17
2019-02-07T04:25:40.902Z,20.17
2019-02-07T04:26:34.150Z,20.90
2019-02-07T04:27:24.220Z,18.63
2019-02-07T04:28:37.397Z,21.97
2019-02-07T04:29:20.729Z,18.63
2019-02-07T04:30:13.591Z,22.50
2019-02-07T04:31:20.567Z,20.13
2019-02-07T04:32:16.062Z,19.03
2019-02-07T04:33:16.914Z,22.07
2019-02-07T04:34:10.491Z,19.30
2019-02-07T04:34:54.699Z,19.80
2019-02-07T04:35:48.395Z,19.10
2019-02-07T04:36:41.862Z,18.10
2019-02-07T04:37:42.369Z,17.37
2019-02-07T04:38:30.023Z,20.07
2019-02-07T04:39:31.656Z,19.20
2019-02-07T04:40:28.634Z,17.57
2019-02-07T04:41:15.208Z,20.07
2019-02-07T04:42:12.888Z,18.37
2019-02-07T04:43:11.134Z,19.67
2019-02-07T04:44:04.429Z,17.67
2019-02-07T04:45:02.403Z,19.20
2019-02-07T04:45:54.140Z,21.67
2019-02-07T04:46:47.601Z,24.17
2019-02-07T04:47:45.279Z,19.33
2019-02-07T04:48:47.200Z,17.33
2019-02-07T04:49:49.877Z,15.87
2019-02-07T04:50:54.423Z,16.00
2019-02-07T04:51:39.332Z,17.70
2019-02-07T04:52:45.190Z,18.20
2019-02-07T04:53:44.478Z,19.60
2019-02-07T04:54:26.884Z,18.30
2019-02-07T04:55:26.075Z,19.13
2019-02-07T04:56:38.839Z,16.67
2019-02-07T04:57:26.997Z,19.20
2019-02-07T04:58:33.148Z,19.87
2019-02-07T04:59:16.457Z,21.87
2019-02-07T05:00:01.988Z,21.63
2019-02-07T05:01:01.958Z,19.83
2019-02-07T05:01:47.423Z,17.00
2019-02-07T05:02:40.880Z,18.43
2019-02-07T05:03:35.428Z,16.67
2019-02-07T05:04:36.395Z,19.63
2019-02-07T05:05:29.709Z,19.83
2019-02-07T05:06:27.306Z,17.30
2019-02-07T05:07:21.092Z,19.73
2019-02-07T05:08:04.855Z,18.97
2019-02-07T05:09:08.640Z,19.60
2019-02-07T05:10:02.181Z,20.00
2019-02-07T05:10:55.556Z,17.53
2019-02-07T05:11:45.108Z,23.67
2019-02-07T05:12:40.210Z,21.93
2019-02-07T05:13:50.328Z,17.90
2019-02-07T05:14:44.379Z,19.20
2019-02-07T05:15:38.040Z,18.70
2019-02-07T05:16:26.202Z,22.50
2019-02-07T05:17:09.103Z,21.37
2019-02-07T05:18:01.577Z,18.93
2019-02-07T05:18:57.981Z,17.93
2019-02-07T05:19:40.658Z,17.80
2019-02-07T05:20:27.799Z,20.87
2019-02-07T05:21:15.697Z,18.67
2019-02-07T05:22:25.744Z,18.20
2019-02-07T05:23:26.128Z,18.63
2019-02-07T05:24:16.341Z,17.60
2019-02-07T05:24:59.157Z,17.90
2019-02-07T05:25:51.251Z,18.63
2019-02-07T05:26:54.842Z,16.77
2019-02-07T05:27:51.163Z,18.57
2019-02-07T05:28:51.785Z,16.30
2019-02-07T05:29:40.648Z,17.47
2019-02-07T05:30:34.527Z,16.90
2019-02-07T05:31:31.022Z,17.23
2019-02-07T05:32:37.776Z,16.70
2019-02-07T05:33:31.038Z,19.73
2019-02-07T05:34:22.471Z,18.13
2019-02-07T05:35:15.995Z,19.30
2019-02-07T05:36:10.676Z,18.40
2019-02-07T05:36:57.884Z,17.83
2019-02-07T05:37:58.708Z,20.17
2019-02-07T05:38:53.349Z,17.33
2019-02-07T05:39:47.083Z,20.97
2019-02-07T05:40:41.730Z,18.23
2019-02-07T05:41:45.522Z,19.53
2019-02-07T05:42:31.510Z,17.33
2019-02-07T05:43:20.059Z,18.97
2019-02-07T05:44:13.720Z,18.20
2019-02-07T05:45:27.326Z,17.77
2019-02-07T05:46:50.449Z,17.33
2019-02-07T05:47:43.499Z,17.77
2019-02-07T05:48:38.481Z,20.90
2019-02-07T05:49:45.157Z,17.03
2019-02-07T05:50:37.447Z,20.43
2019-02-07T05:51:36.608Z,18.10
2019-02-07T05:52:30.519Z,18.47
2019-02-07T05:53:32.398Z,19.70
2019-02-07T05:54:25.924Z,20.37
2019-02-07T05:55:19.246Z,18.37
2019-02-07T05:56:12.460Z,18.27
2019-02-07T05:56:57.111Z,20.77
2019-02-07T05:57:51.737Z,18.27
2019-02-07T05:58:50.109Z,18.13
2019-02-07T05:59:55.103Z,17.60
2019-02-07T06:00:51.031Z,17.57
2019-02-07T06:01:38.288Z,22.07
2019-02-07T06:02:26.460Z,19.03
2019-02-07T06:03:16.932Z,18.30
2019-02-07T06:04:14.466Z,17.97
2019-02-07T06:05:11.984Z,18.67
2019-02-07T06:06:05.420Z,20.83
2019-02-07T06:06:49.615Z,17.73
2019-02-07T06:07:42.830Z,18.87
2019-02-07T06:08:28.204Z,17.63
2019-02-07T06:09:23.742Z,17.10
2019-02-07T06:10:30.943Z,18.90
2019-02-07T06:11:27.628Z,16.67
2019-02-07T06:12:28.667Z,16.27
2019-02-07T06:13:26.377Z,18.70
2019-02-07T06:14:19.947Z,17.53
2019-02-07T06:15:11.259Z,16.70
2019-02-07T06:16:06.968Z,17.77
2019-02-07T06:17:07.448Z,17.53
2019-02-07T06:18:07.085Z,18.40
2019-02-07T06:19:12.025Z,18.23
2019-02-07T06:20:05.790Z,16.27
2019-02-07T06:21:02.296Z,16.33
2019-02-07T06:22:03.085Z,16.27
2019-02-07T06:23:04.759Z,16.47
2019-02-07T06:23:59.715Z,17.47
2019-02-07T06:25:09.687Z,16.83
2019-02-07T06:26:03.058Z,16.07
2019-02-07T06:26:53.276Z,17.60
2019-02-07T06:27:40.433Z,15.57
2019-02-07T06:28:32.959Z,15.37
2019-02-07T06:29:46.076Z,15.57
2019-02-07T06:30:40.783Z,17.60
2019-02-07T06:31:38.369Z,16.30
2019-02-07T06:32:41.907Z,15.33
2019-02-07T06:33:54.976Z,15.83
2019-02-07T06:35:07.631Z,16.40
2019-02-07T06:36:11.597Z,14.43
2019-02-07T06:37:01.153Z,15.17
2019-02-07T06:37:59.335Z,14.57
2019-02-07T06:38:56.099Z,15.43
2019-02-07T06:39:50.743Z,14.73
2019-02-07T06:40:57.857Z,15.30
2019-02-07T06:42:07.703Z,15.47
2019-02-07T06:43:14.923Z,15.10
2019-02-07T06:44:03.516Z,14.77
2019-02-07T06:45:00.868Z,16.20
2019-02-07T06:46:02.665Z,15.23
2019-02-07T06:46:58.819Z,17.10
2019-02-07T06:47:51.151Z,15.37
2019-02-07T06:48:46.419Z,16.43
2019-02-07T06:49:34.191Z,15.07
2019-02-07T06:50:27.329Z,14.67
2019-02-07T06:51:10.461Z,15.00
2019-02-07T06:51:55.735Z,15.33
2019-02-07T06:52:50.609Z,14.30
2019-02-07T06:53:51.385Z,14.10
2019-02-07T06:54:48.782Z,14.20
2019-02-07T06:55:46.681Z,14.77
2019-02-07T06:56:49.638Z,13.97
2019-02-07T06:57:44.266Z,13.83
2019-02-07T06:58:47.639Z,13.17
2019-02-07T06:59:40.752Z,15.50
2019-02-07T07:00:33.806Z,15.07
2019-02-07T07:01:26.879Z,14.90
2019-02-07T07:02:20.431Z,14.80
2019-02-07T07:03:09.570Z,15.37
2019-02-07T07:04:22.709Z,14.83
2019-02-07T07:05:12.323Z,13.80
2019-02-07T07:06:10.204Z,13.70
2019-02-07T07:07:09.527Z,14.03
2019-02-07T07:07:58.959Z,14.63
2019-02-07T07:08:53.603Z,15.77
2019-02-07T07:10:03.305Z,16.00
2019-02-07T07:10:57.390Z,15.27
2019-02-07T07:11:58.264Z,13.87
2019-02-07T07:13:08.318Z,14.33
2019-02-07T07:13:50.886Z,14.33
2019-02-07T07:14:35.544Z,16.57
2019-02-07T07:15:40.152Z,16.07
2019-02-07T07:16:33.983Z,14.47
2019-02-07T07:17:25.824Z,15.30
2019-02-07T07:18:31.119Z,14.60
2019-02-07T07:19:16.136Z,14.30
2019-02-07T07:20:01.784Z,15.87
2019-02-07T07:20:59.554Z,15.87
2019-02-07T07:21:44.028Z,15.27
2019-02-07T07:22:42.720Z,15.10
2019-02-07T07:23:36.235Z,16.80
2019-02-07T07:24:27.644Z,15.97
2019-02-07T07:25:34.976Z,16.80
2019-02-07T07:26:29.929Z,15.97
2019-02-07T07:27:33.975Z,17.33
2019-02-07T07:28:20.927Z,17.60
2019-02-07T07:29:17.003Z,17.57
2019-02-07T07:30:06.549Z,19.10
2019-02-07T07:31:02.776Z,19.23
2019-02-07T07:31:56.407Z,19.23
2019-02-07T07:32:46.069Z,18.30
2019-02-07T07:33:39.455Z,19.30
2019-02-07T07:34:23.195Z,17.60
2019-02-07T07:35:20.443Z,17.77
2019-02-07T07:36:21.367Z,18.27
2019-02-07T07:37:18.772Z,18.77
2019-02-07T07:38:11.912Z,17.77
2019-02-07T07:39:09.790Z,19.00
2019-02-07T07:40:03.098Z,18.30
2019-02-07T07:41:02.975Z,17.37
2019-02-07T07:41:48.631Z,19.43
2019-02-07T07:42:55.724Z,18.00
2019-02-07T07:43:56.706Z,18.63
2019-02-07T07:44:51.494Z,20.33
2019-02-07T07:45:46.120Z,19.90
2019-02-07T07:46:47.019Z,20.27
2019-02-07T07:47:47.712Z,20.27
2019-02-07T07:48:42.364Z,21.50
2019-02-07T07:49:37.139Z,20.30
2019-02-07T07:50:22.699Z,22.50
2019-02-07T07:51:16.384Z,24.57
2019-02-07T07:52:10.090Z,19.23
2019-02-07T07:53:12.407Z,17.87
2019-02-07T07:54:01.215Z,18.60
2019-02-07T07:54:52.022Z,19.27
2019-02-07T07:55:38.035Z,20.33
2019-02-07T07:56:21.795Z,17.37
2019-02-07T07:57:12.542Z,20.00
2019-02-07T07:58:00.419Z,18.70
2019-02-07T07:58:51.215Z,17.30
2019-02-07T08:00:01.122Z,17.70
2019-02-07T08:01:04.525Z,18.40
2019-02-07T08:01:57.820Z,17.70
2019-02-07T08:02:52.441Z,17.83
2019-02-07T08:03:50.127Z,18.23
2019-02-07T08:04:43.770Z,19.67
2019-02-07T08:05:38.467Z,17.23
2019-02-07T08:06:25.815Z,20.00
2019-02-07T08:07:09.080Z,19.00
2019-02-07T08:08:10.165Z,18.17
2019-02-07T08:09:07.986Z,19.13
2019-02-07T08:09:56.611Z,16.97
2019-02-07T08:10:53.979Z,16.67
2019-02-07T08:11:48.605Z,17.93
2019-02-07T08:12:36.158Z,19.57
2019-02-07T08:13:35.692Z,18.57
2019-02-07T08:14:31.859Z,19.47
2019-02-07T08:15:21.123Z,18.77
2019-02-07T08:16:07.654Z,18.97
2019-02-07T08:16:54.126Z,19.87
2019-02-07T08:17:52.055Z,18.03
2019-02-07T08:18:49.935Z,16.80
2019-02-07T08:19:43.640Z,15.33
2019-02-07T08:20:47.643Z,17.47
2019-02-07T08:21:54.663Z,19.40
2019-02-07T08:23:07.719Z,15.37
2019-02-07T08:24:05.140Z,16.53
2019-02-07T08:25:10.359Z,17.43
2019-02-07T08:26:09.520Z,16.47
2019-02-07T08:26:59.195Z,16.77
2019-02-07T08:28:05.722Z,15.30
2019-02-07T08:29:03.171Z,18.30
2019-02-07T08:30:07.064Z,17.97
2019-02-07T08:30:49.184Z,19.30
2019-02-07T08:31:49.596Z,14.33
2019-02-07T08:32:36.991Z,14.53
2019-02-07T08:33:39.287Z,14.00
2019-02-07T08:34:31.651Z,16.50
2019-02-07T08:35:35.252Z,15.43
2019-02-07T08:36:28.795Z,14.53
2019-02-07T08:37:22.275Z,15.37
2019-02-07T08:38:22.997Z,15.40
2019-02-07T08:39:21.815Z,17.17
2019-02-07T08:40:19.407Z,15.13
2019-02-07T08:41:06.263Z,15.40
2019-02-07T08:42:03.688Z,14.00
2019-02-07T08:42:57.462Z,13.20
2019-02-07T08:43:53.976Z,13.27
2019-02-07T08:44:46.697Z,14.03
2019-02-07T08:45:33.816Z,14.73
2019-02-07T08:46:26.872Z,13.47
2019-02-07T08:47:21.788Z,15.73
2019-02-07T08:48:12.086Z,16.97
2019-02-07T08:49:12.793Z,13.00
2019-02-07T08:50:04.115Z,13.17
2019-02-07T08:50:58.535Z,17.07
2019-02-07T08:51:51.948Z,17.57
2019-02-07T08:52:45.424Z,15.23
2019-02-07T08:53:38.515Z,16.37
2019-02-07T08:54:32.127Z,18.07
2019-02-07T08:55:23.547Z,15.67
2019-02-07T08:56:17.259Z,14.93
2019-02-07T08:57:05.348Z,16.53
2019-02-07T08:58:06.670Z,13.27
2019-02-07T08:59:00.054Z,14.67
2019-02-07T08:59:58.275Z,14.90
2019-02-07T09:00:42.939Z,15.50
2019-02-07T09:01:32.137Z,15.60
2019-02-07T09:02:35.839Z,15.37
2019-02-07T09:03:28.547Z,16.03
2019-02-07T09:04:24.228Z,14.40
2019-02-07T09:05:19.168Z,16.53
2019-02-07T09:06:13.044Z,16.87
2019-02-07T09:07:06.362Z,15.97
2019-02-07T09:08:03.916Z,16.27
2019-02-07T09:09:13.892Z,19.00
2019-02-07T09:10:06.588Z,15.60
2019-02-07T09:11:10.520Z,16.30
2019-02-07T09:12:11.020Z,15.93
2019-02-07T09:13:23.791Z,16.67
2019-02-07T09:14:13.516Z,15.90
2019-02-07T09:15:08.500Z,18.23
2019-02-07T09:15:56.056Z,14.70
2019-02-07T09:17:03.070Z,18.13
2019-02-07T09:17:51.867Z,19.10
2019-02-07T09:18:51.371Z,17.77
2019-02-07T09:19:42.974Z,17.13
2019-02-07T09:20:34.143Z,18.43
2019-02-07T09:21:22.935Z,16.95
2019-02-07T09:22:23.704Z,15.27
2019-02-07T09:23:15.736Z,17.60
2019-02-07T09:24:09.151Z,15.87
2019-02-07T09:24:58.476Z,15.03
2019-02-07T09:25:53.127Z,15.83
2019-02-07T09:26:38.003Z,17.13
2019-02-07T09:27:37.924Z,15.00
2019-02-07T09:28:41.062Z,14.47
2019-02-07T09:29:42.020Z,14.63
2019-02-07T09:30:30.144Z,14.53
2019-02-07T09:31:39.971Z,13.07
2019-02-07T09:32:43.786Z,14.17
2019-02-07T09:33:44.498Z,16.13
2019-02-07T09:34:42.668Z,15.20
2019-02-07T09:35:36.030Z,14.53
2019-02-07T09:36:29.571Z,13.50
2019-02-07T09:37:23.218Z,12.93
2019-02-07T09:38:27.575Z,12.47
2019-02-07T09:39:32.082Z,15.27
2019-02-07T09:40:25.687Z,12.87
2019-02-07T09:41:21.342Z,13.10
2019-02-07T09:42:15.442Z,12.50
2019-02-07T09:43:08.457Z,12.17
2019-02-07T09:44:01.703Z,13.00
2019-02-07T09:44:56.312Z,11.30
2019-02-07T09:45:54.010Z,12.07
2019-02-07T09:46:41.942Z,11.17
2019-02-07T09:47:39.391Z,11.70
2019-02-07T09:48:38.595Z,11.50
2019-02-07T09:49:33.968Z,12.10
2019-02-07T09:50:28.635Z,10.10
2019-02-07T09:51:18.171Z,10.37
2019-02-07T09:52:16.098Z,10.83
2019-02-07T09:53:09.603Z,10.90
2019-02-07T09:54:03.691Z,10.73
2019-02-07T09:54:58.685Z,10.70
2019-02-07T09:55:49.774Z,9.57
2019-02-07T09:56:48.202Z,9.63
2019-02-07T09:57:46.023Z,9.87
2019-02-07T09:58:40.475Z,6.93
2019-02-07T09:59:25.533Z,6.60
2019-02-07T10:00:08.263Z,6.13
2019-02-07T10:01:11.972Z,7.17
2019-02-07T10:02:09.675Z,6.63
2019-02-07T10:03:03.288Z,6.70
2019-02-07T10:03:52.900Z,5.90
2019-02-07T10:04:50.510Z,6.23
2019-02-07T10:05:45.783Z,5.57
2019-02-07T10:06:40.611Z,5.67
2019-02-07T10:07:43.095Z,5.50
2019-02-07T10:08:30.529Z,5.87
2019-02-07T10:09:43.072Z,5.30
2019-02-07T10:10:52.905Z,5.53
2019-02-07T10:11:46.597Z,6.10
2019-02-07T10:12:36.601Z,5.73
2019-02-07T10:13:31.547Z,5.60
2019-02-07T10:14:21.950Z,5.57
2019-02-07T10:15:05.987Z,5.03
2019-02-07T10:15:51.476Z,5.43
2019-02-07T10:16:48.634Z,5.40
2019-02-07T10:17:43.263Z,4.67